Time;durP1;ratioP1;P1;durP2;ratioP2;P2;SDS_P1;SDS_P2;PMS_P1;PMS_P2;Temp;Humidity;BMP_temperature;BMP_pressure;BME280_temperature;BME280_humidity;BME280_pressure;Samples;Min_cycle;Max_cycle;Signal;HPM_P1;HPM_P2
2022/09/25 00:01:23;;;;;;;13.70;3.00;;;;;;;;;;5003232;28;20048;-89
2022/09/25 00:03:49;;;;;;;7.95;2.47;;;;;;;;;;5001769;28;20095;-89
2022/09/25 00:06:16;;;;;;;12.35;2.80;;;;;;;;;;4997179;28;20034;-90
2022/09/25 00:08:42;;;;;;;9.02;2.17;;;;;;;;;;5014034;28;20488;-89
2022/09/25 00:11:13;;;;;;;7.88;2.50;;;;;;;;;;5019153;28;20037;-90
2022/09/25 00:13:39;;;;;;;11.45;2.63;;;;;;;;;;5005702;28;20025;-89
2022/09/25 00:16:05;;;;;;;7.10;2.28;;;;;;;;;;5004190;28;20133;-90
2022/09/25 00:21:17;;;;;;;8.65;2.45;;;;;;;;;;5004019;28;20368;-88
2022/09/25 00:23:44;;;;;;;6.07;1.92;;;;;;;;;;5002650;28;20022;-89
2022/09/25 00:26:10;;;;;;;4.38;2.15;;;;;;;;;;5004993;28;20025;-89
2022/09/25 00:28:37;;;;;;;11.75;2.33;;;;;;;;;;4998305;28;20029;-89
2022/09/25 00:31:04;;;;;;;7.13;2.95;;;;;;;;;;4987782;28;20523;-90
2022/09/25 00:33:31;;;;;;;8.80;2.30;;;;;;;;;;5002847;28;20119;-90
2022/09/25 00:36:05;;;;;;;15.57;2.38;;;;;;;;;;5003481;28;20029;-89
2022/09/25 00:38:32;;;;;;;7.20;2.53;;;;;;;;;;5004980;28;20036;-89
2022/09/25 00:41:01;;;;;;;12.75;2.60;;;;;;;;;;5000651;28;20029;-89
2022/09/25 00:43:33;;;;;;;13.65;2.40;;;;;;;;;;5017819;28;20030;-89
2022/09/25 00:46:05;;;;;;;9.52;2.92;;;;;;;;;;4998317;28;20029;-89
2022/09/25 00:48:31;;;;;;;8.27;2.85;;;;;;;;;;5003597;28;20112;-89
2022/09/25 00:51:00;;;;;;;12.40;2.17;;;;;;;;;;4988743;28;20130;-89
2022/09/25 00:53:28;;;;;;;5.38;1.73;;;;;;;;;;4991950;28;20628;-89
2022/09/25 00:55:55;;;;;;;10.75;2.67;;;;;;;;;;4998328;28;20076;-89
2022/09/25 00:58:23;;;;;;;17.65;2.72;;;;;;;;;;5000878;28;20053;-89
2022/09/25 01:00:50;;;;;;;16.48;2.50;;;;;;;;;;5009710;28;20504;-89
2022/09/25 01:03:16;;;;;;;11.13;2.28;;;;;;;;;;5005025;28;20061;-89
2022/09/25 01:05:49;;;;;;;7.05;2.13;;;;;;;;;;4987400;28;20038;-89
2022/09/25 01:08:17;;;;;;;8.63;2.03;;;;;;;;;;4998680;28;20069;-89
2022/09/25 01:10:43;;;;;;;16.45;2.40;;;;;;;;;;5001205;28;20412;-89
2022/09/25 01:13:10;;;;;;;7.80;2.53;;;;;;;;;;5019132;28;20064;-90
2022/09/25 01:15:40;;;;;;;16.10;2.95;;;;;;;;;;4993950;28;20052;-89
2022/09/25 01:18:06;;;;;;;9.57;2.10;;;;;;;;;;5002088;28;20433;-89
2022/09/25 01:20:40;;;;;;;7.80;2.13;;;;;;;;;;5003484;28;20018;-89
2022/09/25 01:23:15;;;;;;;9.20;2.28;;;;;;;;;;5002085;28;20517;-89
2022/09/25 01:26:10;;;;;;;16.70;3.13;;;;;;;;;;5000290;28;20029;-89
2022/09/25 01:28:51;;;;;;;12.90;2.40;;;;;;;;;;5018530;28;20037;-89
2022/09/25 01:31:21;;;;;;;9.40;2.35;;;;;;;;;;5006273;28;20085;-89
2022/09/25 01:33:49;;;;;;;14.48;2.60;;;;;;;;;;5002287;28;20025;-89
2022/09/25 01:36:36;;;;;;;15.90;2.92;;;;;;;;;;5015987;28;20481;-89
2022/09/25 01:39:16;;;;;;;10.98;2.22;;;;;;;;;;5003201;28;20161;-89
2022/09/25 01:42:08;;;;;;;9.05;2.53;;;;;;;;;;5000579;28;20041;-90
2022/09/25 01:44:43;;;;;;;9.30;2.13;;;;;;;;;;4998567;28;20049;-90
2022/09/25 01:47:11;;;;;;;13.02;2.25;;;;;;;;;;5003071;28;20030;-90
2022/09/25 01:49:48;;;;;;;10.38;2.17;;;;;;;;;;5001489;28;20620;-90
2022/09/25 01:52:16;;;;;;;10.27;2.20;;;;;;;;;;5003808;28;20036;-89
2022/09/25 01:54:47;;;;;;;8.23;2.00;;;;;;;;;;4995968;28;20026;-90
2022/09/25 01:57:18;;;;;;;9.35;2.00;;;;;;;;;;5006890;28;20069;-89
2022/09/25 01:59:46;;;;;;;13.10;2.65;;;;;;;;;;5001088;28;20500;-90
2022/09/25 02:02:15;;;;;;;24.55;2.83;;;;;;;;;;5005697;28;20029;-90
2022/09/25 02:04:45;;;;;;;13.40;2.50;;;;;;;;;;5001506;28;20088;-90
2022/09/25 02:07:15;;;;;;;8.80;2.72;;;;;;;;;;5016076;28;20033;-90
2022/09/25 02:09:44;;;;;;;11.50;2.08;;;;;;;;;;5012526;28;20034;-90
2022/09/25 02:12:19;;;;;;;10.90;2.08;;;;;;;;;;5001745;28;20565;-89
2022/09/25 02:14:52;;;;;;;15.30;3.03;;;;;;;;;;4995012;28;20029;-90
2022/09/25 02:22:55;;;;;;;12.30;1.87;;;;;;;;;;5002476;28;20045;-90
2022/09/25 02:25:34;;;;;;;9.68;1.83;;;;;;;;;;4996436;28;20125;-89
2022/09/25 02:28:00;;;;;;;7.28;1.60;;;;;;;;;;4999579;28;20034;-90
2022/09/25 02:30:26;;;;;;;11.88;3.03;;;;;;;;;;4997234;28;20460;-90
2022/09/25 02:32:53;;;;;;;7.63;2.17;;;;;;;;;;4984796;28;20094;-89
2022/09/25 02:35:19;;;;;;;5.53;1.95;;;;;;;;;;4993784;28;20045;-90
2022/09/25 02:37:45;;;;;;;9.10;2.90;;;;;;;;;;4987465;28;20037;-90
2022/09/25 02:40:11;;;;;;;8.82;2.08;;;;;;;;;;4983626;28;20042;-90
2022/09/25 02:42:56;;;;;;;12.98;1.98;;;;;;;;;;5000521;28;20033;-90
2022/09/25 02:45:22;;;;;;;12.68;2.50;;;;;;;;;;4999178;28;20033;-90
2022/09/25 02:48:07;;;;;;;7.90;2.10;;;;;;;;;;4992045;28;20351;-90
2022/09/25 02:51:05;;;;;;;17.00;3.85;;;;;;;;;;5001494;28;20029;-90
2022/09/25 02:53:36;;;;;;;5.47;1.65;;;;;;;;;;4952919;28;20525;-89
2022/09/25 02:56:03;;;;;;;8.85;1.80;;;;;;;;;;4997879;28;20469;-89
2022/09/25 02:58:50;;;;;;;14.52;2.75;;;;;;;;;;5001928;28;20497;-90
2022/09/25 03:01:16;;;;;;;;;;;;;;;;;;5002666;28;20128;-90
2022/09/25 03:03:42;;;;;;;;;;;;;;;;;;4997937;28;19909;-90
2022/09/25 03:06:09;;;;;;;12.27;1.65;;;;;;;;;;4997283;28;20399;-90
2022/09/25 03:08:37;;;;;;;10.73;1.83;;;;;;;;;;4999064;28;20029;-90
2022/09/25 03:11:04;;;;;;;14.88;2.35;;;;;;;;;;5013627;28;20216;-90
2022/09/25 03:13:32;;;;;;;16.33;2.10;;;;;;;;;;5001229;28;20033;-90
2022/09/25 03:16:19;;;;;;;19.40;2.40;;;;;;;;;;4998827;28;20386;-90
2022/09/25 03:18:45;;;;;;;10.93;1.73;;;;;;;;;;5001866;28;20018;-90
2022/09/25 03:21:11;;;;;;;4.20;1.70;;;;;;;;;;4984238;28;20030;-90
2022/09/25 03:23:37;;;;;;;3.13;1.42;;;;;;;;;;4990303;28;20511;-90
2022/09/25 03:26:04;;;;;;;12.35;2.58;;;;;;;;;;4995129;28;20109;-90
2022/09/25 03:28:30;;;;;;;8.85;1.77;;;;;;;;;;4988007;28;20034;-89
2022/09/25 03:31:13;;;;;;;4.43;1.88;;;;;;;;;;4980171;28;20045;-90
2022/09/25 03:33:41;;;;;;;12.43;2.10;;;;;;;;;;4997074;28;20030;-90
2022/09/25 03:36:09;;;;;;;14.57;2.35;;;;;;;;;;5015076;28;20026;-89
2022/09/25 03:38:36;;;;;;;10.32;1.88;;;;;;;;;;5000013;28;20037;-89
2022/09/25 03:41:03;;;;;;;5.63;2.05;;;;;;;;;;4989429;28;20573;-90
2022/09/25 03:43:31;;;;;;;11.70;2.15;;;;;;;;;;4996206;28;20280;-90
2022/09/25 03:45:57;;;;;;;7.68;2.05;;;;;;;;;;4999441;28;20073;-90
2022/09/25 03:48:24;;;;;;;7.13;1.60;;;;;;;;;;4985473;28;20465;-89
2022/09/25 03:50:50;;;;;;;15.73;2.33;;;;;;;;;;4986092;28;20033;-90
2022/09/25 03:53:17;;;;;;;11.75;2.72;;;;;;;;;;5011707;28;20085;-90
2022/09/25 03:55:47;;;;;;;11.30;1.88;;;;;;;;;;5000035;28;20022;-90
2022/09/25 03:58:13;;;;;;;10.02;2.10;;;;;;;;;;4997530;28;20485;-90
2022/09/25 04:00:39;;;;;;;15.10;1.95;;;;;;;;;;4990209;28;20041;-90
2022/09/25 04:03:05;;;;;;;13.55;2.05;;;;;;;;;;4981944;28;20116;-90
2022/09/25 04:05:31;;;;;;;8.23;1.98;;;;;;;;;;4982360;28;20614;-89
2022/09/25 04:07:59;;;;;;;13.90;1.98;;;;;;;;;;5016045;28;20032;-90
2022/09/25 04:10:25;;;;;;;7.78;1.67;;;;;;;;;;4979127;28;20037;-90
2022/09/25 04:12:58;;;;;;;9.30;1.85;;;;;;;;;;4978009;28;20045;-90
2022/09/25 04:15:24;;;;;;;10.63;1.77;;;;;;;;;;4990968;28;20052;-90
2022/09/25 04:17:54;;;;;;;10.85;1.70;;;;;;;;;;5014952;28;20580;-90
2022/09/25 04:20:20;;;;;;;7.82;1.75;;;;;;;;;;5000897;28;20033;-90
2022/09/25 04:22:46;;;;;;;9.52;1.45;;;;;;;;;;4988629;28;20041;-89
2022/09/25 04:25:13;;;;;;;16.80;4.25;;;;;;;;;;4989682;28;20436;-90
2022/09/25 04:27:39;;;;;;;9.85;1.50;;;;;;;;;;5019184;28;20121;-89
2022/09/25 04:30:06;;;;;;;10.40;2.30;;;;;;;;;;5000711;28;20034;-90
2022/09/25 04:35:17;;;;;;;9.98;1.88;;;;;;;;;;5013051;28;20044;-90
2022/09/25 04:37:43;;;;;;;9.25;1.80;;;;;;;;;;5000238;28;20324;-90
2022/09/25 04:40:09;;;;;;;12.73;2.00;;;;;;;;;;4988155;28;20347;-90
2022/09/25 04:42:35;;;;;;;15.82;2.08;;;;;;;;;;5005028;28;20686;-90
2022/09/25 04:45:01;;;;;;;11.20;1.95;;;;;;;;;;5002541;28;20121;-91
2022/09/25 04:47:31;;;;;;;9.32;1.90;;;;;;;;;;4990991;28;20061;-90
2022/09/25 04:49:57;;;;;;;14.52;2.10;;;;;;;;;;5004318;28;20089;-90
2022/09/25 04:52:23;;;;;;;7.68;1.77;;;;;;;;;;4985659;28;20098;-90
2022/09/25 04:54:49;;;;;;;5.70;1.63;;;;;;;;;;4982584;28;20030;-90
2022/09/25 04:57:19;;;;;;;7.35;2.17;;;;;;;;;;5003715;28;20489;-90
2022/09/25 04:59:46;;;;;;;5.63;2.08;;;;;;;;;;5005769;28;20269;-90
2022/09/25 05:02:12;;;;;;;4.40;1.65;;;;;;;;;;5004907;28;20547;-90
2022/09/25 05:04:38;;;;;;;8.40;2.35;;;;;;;;;;4987460;28;20049;-90
2022/09/25 05:07:04;;;;;;;12.88;2.20;;;;;;;;;;4985742;28;20034;-90
2022/09/25 05:09:30;;;;;;;9.80;2.22;;;;;;;;;;5000555;28;20573;-89
2022/09/25 05:11:56;;;;;;;13.52;2.60;;;;;;;;;;4990685;28;20513;-90
2022/09/25 05:14:23;;;;;;;9.02;2.13;;;;;;;;;;4995567;28;20645;-90
2022/09/25 05:16:49;;;;;;;15.20;2.33;;;;;;;;;;4997887;28;20092;-89
2022/09/25 05:19:15;;;;;;;7.63;2.42;;;;;;;;;;4994534;28;20041;-90
2022/09/25 05:21:42;;;;;;;6.28;1.70;;;;;;;;;;4987656;28;20046;-90
2022/09/25 05:24:08;;;;;;;9.52;1.98;;;;;;;;;;5001810;28;20035;-90
2022/09/25 05:26:38;;;;;;;8.70;2.10;;;;;;;;;;5005272;28;20493;-90
2022/09/25 05:29:04;;;;;;;12.55;1.42;;;;;;;;;;4998819;28;20562;-90
2022/09/25 05:31:33;;;;;;;7.05;1.85;;;;;;;;;;4983630;28;20030;-90
2022/09/25 05:33:59;;;;;;;10.68;2.22;;;;;;;;;;4998789;28;20574;-90
2022/09/25 05:36:25;;;;;;;15.73;3.08;;;;;;;;;;4985495;28;20037;-90
2022/09/25 05:38:52;;;;;;;6.60;1.90;;;;;;;;;;4997599;28;20443;-90
2022/09/25 05:41:19;;;;;;;3.83;1.52;;;;;;;;;;4984286;28;20037;-90
2022/09/25 05:43:49;;;;;;;7.47;1.77;;;;;;;;;;4985159;28;20041;-90
2022/09/25 05:46:15;;;;;;;16.33;2.40;;;;;;;;;;5015961;28;20033;-89
2022/09/25 05:48:42;;;;;;;8.15;1.92;;;;;;;;;;5001552;28;20131;-89
2022/09/25 05:51:09;;;;;;;5.90;2.50;;;;;;;;;;5001095;28;20018;-90
2022/09/25 05:53:35;;;;;;;10.10;2.60;;;;;;;;;;4985546;28;20026;-90
2022/09/25 05:56:02;;;;;;;11.10;1.85;;;;;;;;;;5003335;28;20399;-90
2022/09/25 05:58:29;;;;;;;8.55;2.03;;;;;;;;;;5014384;28;20564;-90
2022/09/25 06:00:55;;;;;;;7.82;2.15;;;;;;;;;;4986919;28;20080;-90
2022/09/25 06:03:21;;;;;;;8.35;2.30;;;;;;;;;;5003909;28;20129;-90
2022/09/25 06:05:48;;;;;;;10.43;2.50;;;;;;;;;;4984387;28;20061;-90
2022/09/25 06:08:14;;;;;;;9.45;2.75;;;;;;;;;;5019770;28;20144;-90
2022/09/25 06:10:41;;;;;;;5.35;2.25;;;;;;;;;;4986167;28;20054;-90
2022/09/25 06:13:07;;;;;;;11.18;2.25;;;;;;;;;;5015141;28;20033;-90
2022/09/25 06:15:36;;;;;;;5.55;2.08;;;;;;;;;;5008525;28;20624;-90
2022/09/25 06:18:06;;;;;;;4.40;2.15;;;;;;;;;;4990763;28;20087;-89
2022/09/25 06:20:32;;;;;;;11.25;2.20;;;;;;;;;;4997883;28;20077;-89
2022/09/25 06:25:45;;;;;;;5.35;1.92;;;;;;;;;;4970006;28;20036;-90
2022/09/25 06:28:48;;;;;;;2.75;1.75;;;;;;;;;;4989609;28;20143;-90
2022/09/25 06:31:14;;;;;;;10.88;2.53;;;;;;;;;;4989917;28;20048;-90
2022/09/25 06:36:40;;;;;;;7.68;2.05;;;;;;;;;;5018074;28;20678;-90
2022/09/25 06:39:06;;;;;;;6.10;2.00;;;;;;;;;;4989710;28;20064;-90
2022/09/25 06:41:32;;;;;;;7.28;1.70;;;;;;;;;;4997358;28;20041;-90
2022/09/25 06:43:58;;;;;;;5.72;1.83;;;;;;;;;;4996816;28;20100;-90
2022/09/25 06:46:36;;;;;;;7.00;1.73;;;;;;;;;;4998892;28;20068;-91
2022/09/25 06:49:02;;;;;;;5.28;1.63;;;;;;;;;;4979461;28;20048;-90
2022/09/25 06:51:31;;;;;;;5.00;1.60;;;;;;;;;;4988614;28;20030;-90
2022/09/25 06:53:57;;;;;;;12.93;1.83;;;;;;;;;;4987115;28;20030;-90
2022/09/25 06:56:23;;;;;;;6.82;1.60;;;;;;;;;;4996420;28;20030;-90
2022/09/25 06:58:49;;;;;;;4.53;1.50;;;;;;;;;;5004793;28;20025;-90
2022/09/25 07:01:16;;;;;;;7.43;2.00;;;;;;;;;;4982395;28;20571;-90
2022/09/25 07:03:45;;;;;;;4.25;1.52;;;;;;;;;;4996247;28;20065;-90
2022/09/25 07:06:21;;;;;;;11.52;2.30;;;;;;;;;;5015189;28;20017;-90
2022/09/25 07:08:47;;;;;;;4.78;1.48;;;;;;;;;;5001947;28;20029;-90
2022/09/25 07:11:15;;;;;;;7.25;1.80;;;;;;;;;;5001764;28;20026;-90
2022/09/25 07:13:41;;;;;;;5.20;1.65;;;;;;;;;;5016720;28;20611;-91
2022/09/25 07:16:50;;;;;;;;;;;;;;;;;;;;;
2022/09/25 07:19:31;;;;;;;13.23;4.88;;;;;;;;;;5012197;28;20042;-90
2022/09/25 07:34:20;;;;;;;14.10;4.20;;;;;;;;;;4962003;28;20046;-90
2022/09/25 07:41:05;;;;;;;9.55;1.75;;;;;;;;;;4934121;28;20039;-91
2022/09/25 07:46:46;;;;;;;;;;;;;;;;;;;;;
2022/09/25 07:52:32;;;;;;;7.95;1.17;;;;;;;;;;4856343;29;20127;-91
2022/09/25 07:54:58;;;;;;;4.10;1.10;;;;;;;;;;4905648;28;20044;-91
2022/09/25 07:57:26;;;;;;;6.13;2.30;;;;;;;;;;4962164;28;20097;-91
2022/09/25 07:59:52;;;;;;;11.80;2.90;;;;;;;;;;4993424;28;20207;-91
2022/09/25 08:02:18;;;;;;;4.57;1.40;;;;;;;;;;5000030;28;20120;-91
2022/09/25 08:04:44;;;;;;;4.07;0.95;;;;;;;;;;5001834;28;20469;-91
2022/09/25 08:07:11;;;;;;;4.65;1.35;;;;;;;;;;4988305;28;20044;-90
2022/09/25 08:09:39;;;;;;;7.03;1.90;;;;;;;;;;4988231;28;20038;-91
2022/09/25 08:12:05;;;;;;;7.70;1.33;;;;;;;;;;4987565;28;20120;-91
2022/09/25 08:14:32;;;;;;;4.38;1.00;;;;;;;;;;5004250;28;20034;-91
2022/09/25 08:16:58;;;;;;;5.68;1.15;;;;;;;;;;4989841;28;20404;-91
2022/09/25 08:19:26;;;;;;;8.45;1.60;;;;;;;;;;4997689;28;20563;-91
2022/09/25 08:21:52;;;;;;;4.55;1.10;;;;;;;;;;4999440;28;20030;-91
2022/09/25 08:24:18;;;;;;;3.42;1.27;;;;;;;;;;5001766;28;20051;-91
2022/09/25 08:26:46;;;;;;;3.55;1.13;;;;;;;;;;4997720;28;20493;-91
2022/09/25 08:29:37;;;;;;;6.13;1.60;;;;;;;;;;5004657;28;20072;-92
2022/09/25 08:32:03;;;;;;;10.23;2.45;;;;;;;;;;5000555;28;20058;-92
2022/09/25 08:34:30;;;;;;;8.40;1.52;;;;;;;;;;5004989;28;20056;-92
2022/09/25 08:36:57;;;;;;;2.70;1.20;;;;;;;;;;4998381;28;20036;-92
2022/09/25 08:39:23;;;;;;;4.25;1.50;;;;;;;;;;4999965;28;20049;-91
2022/09/25 08:41:57;;;;;;;1.67;0.73;;;;;;;;;;4998963;28;20602;-91
2022/09/25 08:44:44;;;;;;;3.80;1.58;;;;;;;;;;5011616;28;20036;-91
2022/09/25 08:50:14;;;;;;;2.65;1.13;;;;;;;;;;5017938;28;20386;-91
2022/09/25 08:52:42;;;;;;;3.63;0.85;;;;;;;;;;5000731;28;20486;-91
2022/09/25 08:55:22;;;;;;;3.63;1.23;;;;;;;;;;4995380;28;20453;-91
2022/09/25 08:57:52;;;;;;;3.15;0.90;;;;;;;;;;4996598;28;20108;-90
2022/09/25 09:00:19;;;;;;;2.58;0.88;;;;;;;;;;4986565;28;20041;-90
2022/09/25 09:02:56;;;;;;;5.78;1.30;;;;;;;;;;4998746;28;20025;-91
2022/09/25 09:05:37;;;;;;;3.92;0.95;;;;;;;;;;5000384;28;20033;-90
2022/09/25 09:08:07;;;;;;;6.22;0.68;;;;;;;;;;5013838;28;20473;-90
2022/09/25 09:10:32;;;;;;;3.83;0.73;;;;;;;;;;4993704;28;20508;-91
2022/09/25 09:13:17;;;;;;;5.47;0.85;;;;;;;;;;5004682;28;20014;-91
2022/09/25 09:15:46;;;;;;;14.20;2.60;;;;;;;;;;5003220;28;20026;-91
2022/09/25 09:18:26;;;;;;;5.03;1.13;;;;;;;;;;5003440;28;20591;-91
2022/09/25 09:20:56;;;;;;;4.60;1.30;;;;;;;;;;4996606;28;20045;-90
2022/09/25 09:23:24;;;;;;;15.02;0.95;;;;;;;;;;4984688;28;20029;-91
2022/09/25 09:26:00;;;;;;;7.68;1.58;;;;;;;;;;4996407;28;20034;-91
2022/09/25 09:28:47;;;;;;;18.88;7.82;;;;;;;;;;4999168;28;20540;-92
2022/09/25 09:31:25;;;;;;;6.53;2.38;;;;;;;;;;5016089;28;20485;-93
2022/09/25 09:33:54;;;;;;;9.45;1.95;;;;;;;;;;5002543;28;20034;-93
2022/09/25 09:36:36;;;;;;;8.02;3.80;;;;;;;;;;5017505;28;20030;-94
2022/09/25 09:39:30;;;;;;;9.35;1.77;;;;;;;;;;5005791;28;21061;-94
2022/09/25 09:42:08;;;;;;;8.95;1.45;;;;;;;;;;5002042;28;20516;-93
2022/09/25 09:44:42;;;;;;;8.45;1.45;;;;;;;;;;5009479;28;20409;-93
2022/09/25 09:47:26;;;;;;;9.35;1.42;;;;;;;;;;5000278;28;20025;-94
2022/09/25 09:50:00;;;;;;;5.43;1.30;;;;;;;;;;5000635;28;20056;-93
2022/09/25 09:52:30;;;;;;;3.75;1.65;;;;;;;;;;4999227;28;20042;-94
2022/09/25 09:55:01;;;;;;;5.80;1.58;;;;;;;;;;5003956;28;20459;-92
2022/09/25 09:57:33;;;;;;;2.30;1.20;;;;;;;;;;5001188;28;20059;-93
2022/09/25 10:00:19;;;;;;;9.90;1.58;;;;;;;;;;5003039;28;20041;-92
2022/09/25 10:02:50;;;;;;;6.00;1.70;;;;;;;;;;4994840;28;20537;-92
2022/09/25 10:05:36;;;;;;;3.72;1.70;;;;;;;;;;4997994;28;20093;-92
2022/09/25 10:08:09;;;;;;;11.98;1.52;;;;;;;;;;4982367;28;20080;-91
2022/09/25 10:10:37;;;;;;;15.05;3.65;;;;;;;;;;4981970;28;20041;-92
2022/09/25 10:13:06;;;;;;;9.80;3.92;;;;;;;;;;4983618;28;20029;-92
2022/09/25 10:16:02;;;;;;;6.60;2.78;;;;;;;;;;4981087;28;20101;-92
2022/09/25 10:18:31;;;;;;;3.60;1.63;;;;;;;;;;4970126;28;20050;-91
2022/09/25 10:21:00;;;;;;;4.53;1.27;;;;;;;;;;4989117;28;20533;-92
2022/09/25 10:23:35;;;;;;;3.75;1.30;;;;;;;;;;4986666;28;20128;-92
2022/09/25 10:26:01;;;;;;;2.75;0.90;;;;;;;;;;5000668;28;20088;-92
2022/09/25 10:28:27;;;;;;;6.57;1.20;;;;;;;;;;5001558;28;20054;-91
2022/09/25 10:30:54;;;;;;;5.70;1.13;;;;;;;;;;5001335;28;20081;-91
2022/09/25 10:33:22;;;;;;;4.25;1.17;;;;;;;;;;4981120;28;20148;-92
2022/09/25 10:35:49;;;;;;;8.73;1.65;;;;;;;;;;4985359;28;20022;-90
2022/09/25 10:38:24;;;;;;;7.03;1.80;;;;;;;;;;5001050;28;20058;-91
2022/09/25 10:40:59;;;;;;;6.13;2.28;;;;;;;;;;4998474;28;20218;-91
2022/09/25 10:43:26;;;;;;;4.50;1.35;;;;;;;;;;4989650;28;20038;-92
2022/09/25 10:46:06;;;;;;;4.78;1.17;;;;;;;;;;4987539;28;20050;-91
2022/09/25 10:51:22;;;;;;;6.20;2.60;;;;;;;;;;5002755;28;20425;-91
2022/09/25 10:54:10;;;;;;;3.10;1.27;;;;;;;;;;4987040;28;20050;-91
2022/09/25 10:56:37;;;;;;;2.58;0.93;;;;;;;;;;4985724;28;20025;-91
2022/09/25 10:59:11;;;;;;;4.47;1.33;;;;;;;;;;4984794;28;20089;-91
2022/09/25 11:01:46;;;;;;;3.45;1.27;;;;;;;;;;5016338;28;20053;-91
2022/09/25 11:04:27;;;;;;;4.63;0.90;;;;;;;;;;5005309;28;20036;-91
2022/09/25 11:06:56;;;;;;;1.70;0.80;;;;;;;;;;5003955;28;20392;-91
2022/09/25 11:09:23;;;;;;;3.20;0.85;;;;;;;;;;5000754;28;20084;-91
2022/09/25 11:11:51;;;;;;;1.73;0.70;;;;;;;;;;4991220;28;20029;-91
2022/09/25 11:14:27;;;;;;;3.80;1.25;;;;;;;;;;4999274;28;20034;-91
2022/09/25 11:16:53;;;;;;;;;;;;;;;;;;5004446;28;20041;-91
2022/09/25 11:19:31;;;;;;;2.60;1.10;;;;;;;;;;4998866;28;19912;-91
2022/09/25 11:22:13;;;;;;;3.05;1.75;;;;;;;;;;5004914;28;20069;-91
2022/09/25 11:24:58;;;;;;;2.35;1.50;;;;;;;;;;5001702;28;20040;-91
2022/09/25 11:27:35;;;;;;;1.52;1.00;;;;;;;;;;5005048;28;20070;-91
2022/09/25 11:30:05;;;;;;;2.15;1.40;;;;;;;;;;5000835;28;20037;-91
2022/09/25 11:32:40;;;;;;;8.98;1.08;;;;;;;;;;5003984;28;20351;-91
2022/09/25 11:35:25;;;;;;;3.53;1.33;;;;;;;;;;4998141;28;20089;-91
2022/09/25 11:38:02;;;;;;;4.28;0.82;;;;;;;;;;5000193;28;20569;-91
2022/09/25 11:43:18;;;;;;;0.70;0.60;;;;;;;;;;5017960;28;20405;-91
2022/09/25 11:45:50;;;;;;;3.17;0.98;;;;;;;;;;4995582;28;20037;-90
2022/09/25 11:48:49;;;;;;;2.30;1.30;;;;;;;;;;5003248;28;20026;-90
2022/09/25 11:51:26;;;;;;;2.08;1.00;;;;;;;;;;4968862;28;20599;-91
2022/09/25 11:53:55;;;;;;;2.30;1.10;;;;;;;;;;5006722;28;20052;-91
2022/09/25 11:56:35;;;;;;;1.88;1.30;;;;;;;;;;4998304;28;20041;-91
2022/09/25 11:59:23;;;;;;;3.00;0.65;;;;;;;;;;5000610;28;20037;-90
2022/09/25 12:02:09;;;;;;;2.85;0.80;;;;;;;;;;5001615;28;20114;-90
2022/09/25 12:04:43;;;;;;;1.20;0.80;;;;;;;;;;4996347;28;20544;-90
2022/09/25 12:07:09;;;;;;;6.30;1.02;;;;;;;;;;5001573;28;20021;-90
2022/09/25 12:09:49;;;;;;;3.22;0.73;;;;;;;;;;5005250;28;20056;-90
2022/09/25 12:12:31;;;;;;;3.80;1.13;;;;;;;;;;5001324;28;20501;-91
2022/09/25 12:15:20;;;;;;;5.53;1.00;;;;;;;;;;4994233;28;20112;-90
2022/09/25 12:17:54;;;;;;;3.80;1.00;;;;;;;;;;5002886;28;20017;-90
2022/09/25 12:20:24;;;;;;;5.72;1.13;;;;;;;;;;5001273;28;20034;-91
2022/09/25 12:23:14;;;;;;;2.47;1.17;;;;;;;;;;4999382;28;20490;-90
2022/09/25 12:25:48;;;;;;;2.58;1.00;;;;;;;;;;5007299;28;20390;-90
2022/09/25 12:28:26;;;;;;;3.38;1.05;;;;;;;;;;5003193;28;20096;-90
2022/09/25 12:30:55;;;;;;;3.13;0.73;;;;;;;;;;5006025;28;20099;-90
2022/09/25 12:33:21;;;;;;;1.88;0.73;;;;;;;;;;5013128;28;20045;-91
2022/09/25 12:35:58;;;;;;;5.53;0.80;;;;;;;;;;5003037;28;20063;-90
2022/09/25 12:38:29;;;;;;;5.43;1.00;;;;;;;;;;5008167;28;20034;-90
2022/09/25 12:41:16;;;;;;;2.97;0.70;;;;;;;;;;5008160;28;20108;-90
2022/09/25 12:43:50;;;;;;;4.70;1.35;;;;;;;;;;5006138;28;20044;-90
2022/09/25 12:46:25;;;;;;;7.97;0.82;;;;;;;;;;5006735;28;20029;-90
2022/09/25 12:48:58;;;;;;;5.72;0.88;;;;;;;;;;5002112;28;20361;-90
2022/09/25 12:51:33;;;;;;;3.97;0.77;;;;;;;;;;5003494;28;20037;-90
2022/09/25 12:54:07;;;;;;;4.05;1.08;;;;;;;;;;5010022;28;20040;-90
2022/09/25 12:56:36;;;;;;;2.70;0.93;;;;;;;;;;5005959;28;20028;-90
2022/09/25 12:59:29;;;;;;;6.70;1.00;;;;;;;;;;5006497;28;20485;-90
2022/09/25 13:02:00;;;;;;;4.80;1.08;;;;;;;;;;5004340;28;20048;-90
2022/09/25 13:04:52;;;;;;;3.53;0.70;;;;;;;;;;5002068;28;20620;-90
2022/09/25 13:07:37;;;;;;;4.72;0.82;;;;;;;;;;4998897;28;20041;-90
2022/09/25 13:10:17;;;;;;;3.03;0.70;;;;;;;;;;5006499;28;20515;-91
2022/09/25 13:12:44;;;;;;;5.93;0.90;;;;;;;;;;5001937;28;20567;-90
2022/09/25 13:15:22;;;;;;;4.43;1.10;;;;;;;;;;4989409;28;21273;-90
2022/09/25 13:17:49;;;;;;;2.33;0.82;;;;;;;;;;5003790;28;20120;-90
2022/09/25 13:20:27;;;;;;;2.80;0.95;;;;;;;;;;4989624;28;20049;-90
2022/09/25 13:23:12;;;;;;;3.15;0.90;;;;;;;;;;5000533;28;20477;-90
2022/09/25 13:25:58;;;;;;;3.78;0.70;;;;;;;;;;4998274;28;20036;-91
2022/09/25 13:28:28;;;;;;;4.95;1.00;;;;;;;;;;5005761;28;20030;-91
2022/09/25 14:05:52;;;;;;;5.07;0.85;;;;;;;;;;989890;23;21573;-89
2022/09/25 14:15:26;;;;;;;3.30;0.90;;;;;;;;;;4959619;28;20030;-91
2022/09/25 14:18:25;;;;;;;5.38;0.85;;;;;;;;;;4963336;28;20510;-91
2022/09/25 14:27:26;;;;;;;4.82;0.80;;;;;;;;;;4962178;28;20045;-92
2022/09/25 14:30:17;;;;;;;6.57;0.88;;;;;;;;;;4940319;28;20055;-91
2022/09/25 14:32:59;;;;;;;6.18;1.40;;;;;;;;;;5286248;23;20070;-94
2022/09/25 14:35:44;;;;;;;6.40;1.13;;;;;;;;;;5025601;28;20061;-93
2022/09/25 14:38:19;;;;;;;2.90;0.50;;;;;;;;;;4991637;28;20367;-93
2022/09/25 14:41:04;;;;;;;2.35;1.08;;;;;;;;;;5017890;28;20053;-93
2022/09/25 14:43:39;;;;;;;3.30;0.93;;;;;;;;;;4992311;28;20036;-94
2022/09/25 14:46:10;;;;;;;5.35;0.77;;;;;;;;;;4990416;28;20022;-93
2022/09/25 14:48:43;;;;;;;6.38;1.02;;;;;;;;;;5005408;28;20477;-93
2022/09/25 14:51:12;;;;;;;5.75;0.85;;;;;;;;;;4998385;28;20048;-94
2022/09/25 14:53:41;;;;;;;6.13;1.20;;;;;;;;;;4982806;28;20025;-94
2022/09/25 14:56:11;;;;;;;3.53;0.70;;;;;;;;;;4998622;28;20392;-94
2022/09/25 14:58:40;;;;;;;3.85;0.77;;;;;;;;;;4998502;28;20022;-94
2022/09/25 15:01:10;;;;;;;4.45;0.85;;;;;;;;;;4998401;28;20177;-94
2022/09/25 15:03:40;;;;;;;6.47;1.00;;;;;;;;;;4998440;28;20084;-94
2022/09/25 15:06:06;;;;;;;2.83;0.93;;;;;;;;;;4999076;28;20080;-96
2022/09/25 15:08:36;;;;;;;6.80;0.88;;;;;;;;;;4983238;28;20116;-94
2022/09/25 15:11:16;;;;;;;5.15;1.02;;;;;;;;;;5000214;28;20030;-94
2022/09/25 15:13:42;;;;;;;3.97;0.90;;;;;;;;;;4999681;28;20022;-94
2022/09/25 15:19:03;;;;;;;1.55;0.50;;;;;;;;;;5017663;28;20061;-95
2022/09/25 15:21:30;;;;;;;3.85;1.25;;;;;;;;;;4984941;28;20030;-93
2022/09/25 15:24:00;;;;;;;4.07;0.70;;;;;;;;;;5004248;28;20069;-93
2022/09/25 15:26:27;;;;;;;10.32;3.05;;;;;;;;;;5012084;28;20495;-93
2022/09/25 15:28:54;;;;;;;4.00;1.27;;;;;;;;;;5009726;28;20037;-92
2022/09/25 15:31:20;;;;;;;4.47;1.02;;;;;;;;;;5036335;28;20093;-92
2022/09/25 15:34:01;;;;;;;7.95;3.53;;;;;;;;;;5046332;28;20060;-93
2022/09/25 15:36:27;;;;;;;6.95;0.95;;;;;;;;;;5043710;28;20057;-93
2022/09/25 15:38:54;;;;;;;2.03;0.70;;;;;;;;;;5036029;28;20032;-95
2022/09/25 15:41:22;;;;;;;3.08;0.90;;;;;;;;;;5022351;28;20080;-96
2022/09/25 15:43:50;;;;;;;3.42;0.80;;;;;;;;;;5022157;28;20029;-94
2022/09/25 15:46:36;;;;;;;3.60;1.10;;;;;;;;;;5013163;28;20056;-94
2022/09/25 15:49:03;;;;;;;3.58;0.55;;;;;;;;;;5037337;28;20025;-95
2022/09/25 15:51:32;;;;;;;1.50;0.70;;;;;;;;;;5036395;28;20026;-95
2022/09/25 15:54:16;;;;;;;1.42;0.60;;;;;;;;;;5036292;28;20022;-94
2022/09/25 15:56:47;;;;;;;3.90;0.80;;;;;;;;;;5036006;28;20025;-96
2022/09/25 15:59:19;;;;;;;4.03;0.82;;;;;;;;;;5035505;28;20128;-96
2022/09/25 16:07:30;;;;;;;3.33;0.60;;;;;;;;;;5035259;28;20089;-95
2022/09/25 16:09:58;;;;;;;4.40;0.95;;;;;;;;;;5030104;28;20401;-95
2022/09/25 16:12:25;;;;;;;2.83;1.02;;;;;;;;;;5039119;28;20105;-96
2022/09/25 16:14:52;;;;;;;4.25;1.15;;;;;;;;;;5041027;28;20052;-96
2022/09/25 16:17:39;;;;;;;2.33;0.60;;;;;;;;;;5039821;28;20053;-96
2022/09/25 16:20:23;;;;;;;9.38;0.93;;;;;;;;;;5040071;28;20039;-96
2022/09/25 16:22:52;;;;;;;3.45;1.00;;;;;;;;;;5038619;28;20021;-96
2022/09/25 16:25:24;;;;;;;8.85;1.05;;;;;;;;;;5038575;28;20115;-96
2022/09/25 16:27:51;;;;;;;3.95;0.90;;;;;;;;;;5038276;28;20025;-96
2022/09/25 16:30:18;;;;;;;6.25;0.82;;;;;;;;;;5037995;28;20484;-96
2022/09/25 16:32:56;;;;;;;4.85;0.82;;;;;;;;;;5044240;28;20041;-96
2022/09/25 16:35:24;;;;;;;2.17;0.70;;;;;;;;;;5041391;28;20370;-96
2022/09/25 16:37:51;;;;;;;4.10;1.05;;;;;;;;;;5041715;28;20028;-96
2022/09/25 16:40:23;;;;;;;4.22;0.90;;;;;;;;;;5041521;28;20031;-96
2022/09/25 16:42:50;;;;;;;3.65;0.95;;;;;;;;;;5041414;28;20029;-96
2022/09/25 16:45:23;;;;;;;6.00;0.93;;;;;;;;;;5024757;28;20076;-96
2022/09/25 16:47:49;;;;;;;3.35;1.23;;;;;;;;;;5041290;28;20025;-96
2022/09/25 16:50:16;;;;;;;8.23;0.80;;;;;;;;;;5041408;28;20032;-96
2022/09/25 16:52:43;;;;;;;1.45;0.88;;;;;;;;;;5041565;28;20380;-95
2022/09/25 16:55:17;;;;;;;4.93;1.15;;;;;;;;;;5024777;28;20100;-96